Union, Washington
Current Conditions -  °F | °C
As of 1:53 PM on Tuesday 21 Oct 2014 (Local Time) from KSHN Reporting Station
Overcast Overcast  
Wind Chill: 58°   Ceiling: 2600
Heat Index: 58°   Visibility: 10mi
Dew Point: 54°   Wind: 8mph
Humidity: 87%   Direction: 140°SE
Pressure: 29.88"   Gusts: NA
Location:  47.35°N, 123.1°W
Report Text: KSHN 212053Z AUTO 14007KT 10SM SCT021 BKN026 OVC046 14/12 A2988 RMK AO2 RAB29E43 SLP118 P0000 60007 T01440122 58003 TSNO
Loading
Personal Weather Stations






























Interactive Weather Map
Tropical Storm Tracking
New forecast layout! Learn more

10-Day Weather Forecast

Advertisements
Track Severe Weather on mobile